sensor_id;sensor_type;location;lat;lon;timestamp;P1;durP1;ratioP1;P2;durP2;ratioP2
49340;SDS011;35209;51.050;13.678;2023-11-22T00:03:45;10.50;;;9.40;;
49340;SDS011;35209;51.050;13.678;2023-11-22T00:08:47;10.30;;;9.15;;
49340;SDS011;35209;51.050;13.678;2023-11-22T00:13:48;9.57;;;8.55;;
49340;SDS011;35209;51.050;13.678;2023-11-22T00:18:50;9.60;;;8.70;;
49340;SDS011;35209;51.050;13.678;2023-11-22T00:23:52;12.50;;;9.35;;
49340;SDS011;35209;51.050;13.678;2023-11-22T00:28:53;11.32;;;9.25;;
49340;SDS011;35209;51.050;13.678;2023-11-22T00:33:55;12.82;;;9.40;;
49340;SDS011;35209;51.050;13.678;2023-11-22T00:38:57;10.63;;;9.57;;
49340;SDS011;35209;51.050;13.678;2023-11-22T00:43:59;13.48;;;9.30;;
49340;SDS011;35209;51.050;13.678;2023-11-22T00:49:01;11.18;;;9.77;;
49340;SDS011;35209;51.050;13.678;2023-11-22T00:54:03;12.27;;;10.27;;
49340;SDS011;35209;51.050;13.678;2023-11-22T00:59:05;12.80;;;9.43;;
49340;SDS011;35209;51.050;13.678;2023-11-22T01:04:06;12.55;;;10.40;;
49340;SDS011;35209;51.050;13.678;2023-11-22T01:09:09;10.38;;;9.20;;
49340;SDS011;35209;51.050;13.678;2023-11-22T01:14:10;10.02;;;9.02;;
49340;SDS011;35209;51.050;13.678;2023-11-22T01:19:12;10.85;;;9.75;;
49340;SDS011;35209;51.050;13.678;2023-11-22T01:24:17;10.65;;;9.60;;
49340;SDS011;35209;51.050;13.678;2023-11-22T01:29:20;10.55;;;8.65;;
49340;SDS011;35209;51.050;13.678;2023-11-22T01:34:22;13.68;;;10.15;;
49340;SDS011;35209;51.050;13.678;2023-11-22T01:39:24;10.65;;;9.55;;
49340;SDS011;35209;51.050;13.678;2023-11-22T01:44:26;14.15;;;11.23;;
49340;SDS011;35209;51.050;13.678;2023-11-22T01:49:29;14.68;;;10.85;;
49340;SDS011;35209;51.050;13.678;2023-11-22T01:54:31;10.70;;;9.60;;
49340;SDS011;35209;51.050;13.678;2023-11-22T01:59:33;11.95;;;9.85;;
49340;SDS011;35209;51.050;13.678;2023-11-22T02:04:35;11.00;;;9.45;;
49340;SDS011;35209;51.050;13.678;2023-11-22T02:09:37;11.98;;;9.07;;
49340;SDS011;35209;51.050;13.678;2023-11-22T02:14:39;12.52;;;10.30;;
49340;SDS011;35209;51.050;13.678;2023-11-22T02:19:43;10.52;;;9.35;;
49340;SDS011;35209;51.050;13.678;2023-11-22T02:24:46;9.93;;;8.80;;
49340;SDS011;35209;51.050;13.678;2023-11-22T02:29:48;12.88;;;9.73;;
49340;SDS011;35209;51.050;13.678;2023-11-22T02:34:51;10.98;;;9.38;;
49340;SDS011;35209;51.050;13.678;2023-11-22T02:45:27;11.50;;;9.98;;
49340;SDS011;35209;51.050;13.678;2023-11-22T02:50:29;10.80;;;8.57;;
49340;SDS011;35209;51.050;13.678;2023-11-22T02:55:36;11.83;;;9.30;;
49340;SDS011;35209;51.050;13.678;2023-11-22T03:00:39;9.88;;;8.55;;
49340;SDS011;35209;51.050;13.678;2023-11-22T03:05:42;9.07;;;7.85;;
49340;SDS011;35209;51.050;13.678;2023-11-22T03:10:44;10.02;;;8.70;;
49340;SDS011;35209;51.050;13.678;2023-11-22T03:15:53;15.70;;;9.52;;
49340;SDS011;35209;51.050;13.678;2023-11-22T03:20:55;11.05;;;9.95;;
49340;SDS011;35209;51.050;13.678;2023-11-22T03:25:56;13.27;;;9.68;;
49340;SDS011;35209;51.050;13.678;2023-11-22T03:30:59;11.30;;;9.13;;
49340;SDS011;35209;51.050;13.678;2023-11-22T03:36:01;13.38;;;9.45;;
49340;SDS011;35209;51.050;13.678;2023-11-22T03:41:04;9.30;;;8.40;;
49340;SDS011;35209;51.050;13.678;2023-11-22T03:46:07;9.95;;;8.68;;
49340;SDS011;35209;51.050;13.678;2023-11-22T03:51:09;11.02;;;9.02;;
49340;SDS011;35209;51.050;13.678;2023-11-22T03:56:10;11.73;;;9.98;;
49340;SDS011;35209;51.050;13.678;2023-11-22T04:01:12;10.88;;;9.15;;
49340;SDS011;35209;51.050;13.678;2023-11-22T04:06:17;15.77;;;9.77;;
49340;SDS011;35209;51.050;13.678;2023-11-22T04:11:20;14.50;;;9.52;;
49340;SDS011;35209;51.050;13.678;2023-11-22T04:16:23;15.48;;;10.43;;
49340;SDS011;35209;51.050;13.678;2023-11-22T04:21:25;9.27;;;8.38;;
49340;SDS011;35209;51.050;13.678;2023-11-22T04:26:27;13.05;;;10.13;;
49340;SDS011;35209;51.050;13.678;2023-11-22T04:31:29;10.50;;;9.43;;
49340;SDS011;35209;51.050;13.678;2023-11-22T04:36:31;12.20;;;10.07;;
49340;SDS011;35209;51.050;13.678;2023-11-22T04:41:33;14.05;;;10.95;;
49340;SDS011;35209;51.050;13.678;2023-11-22T04:46:36;11.70;;;9.73;;
49340;SDS011;35209;51.050;13.678;2023-11-22T04:51:37;11.75;;;9.18;;
49340;SDS011;35209;51.050;13.678;2023-11-22T04:56:39;11.50;;;10.30;;
49340;SDS011;35209;51.050;13.678;2023-11-22T05:01:41;10.35;;;9.18;;
49340;SDS011;35209;51.050;13.678;2023-11-22T05:06:43;12.73;;;9.25;;
49340;SDS011;35209;51.050;13.678;2023-11-22T05:11:45;10.98;;;9.45;;
49340;SDS011;35209;51.050;13.678;2023-11-22T05:16:47;13.88;;;8.95;;
49340;SDS011;35209;51.050;13.678;2023-11-22T05:21:49;9.80;;;8.55;;
49340;SDS011;35209;51.050;13.678;2023-11-22T05:26:50;13.73;;;10.43;;
49340;SDS011;35209;51.050;13.678;2023-11-22T05:31:53;10.90;;;9.75;;
49340;SDS011;35209;51.050;13.678;2023-11-22T05:36:54;13.02;;;8.73;;
49340;SDS011;35209;51.050;13.678;2023-11-22T05:41:56;11.48;;;9.63;;
49340;SDS011;35209;51.050;13.678;2023-11-22T05:46:58;10.20;;;8.95;;
49340;SDS011;35209;51.050;13.678;2023-11-22T05:51:59;10.77;;;9.13;;
49340;SDS011;35209;51.050;13.678;2023-11-22T05:57:01;12.68;;;10.55;;
49340;SDS011;35209;51.050;13.678;2023-11-22T06:02:03;11.73;;;9.63;;
49340;SDS011;35209;51.050;13.678;2023-11-22T06:07:05;11.63;;;9.85;;
49340;SDS011;35209;51.050;13.678;2023-11-22T06:12:07;13.73;;;9.75;;
49340;SDS011;35209;51.050;13.678;2023-11-22T06:17:08;10.85;;;9.75;;
49340;SDS011;35209;51.050;13.678;2023-11-22T06:22:10;12.57;;;9.98;;
49340;SDS011;35209;51.050;13.678;2023-11-22T06:27:12;13.23;;;10.25;;
49340;SDS011;35209;51.050;13.678;2023-11-22T06:32:14;12.27;;;10.32;;
49340;SDS011;35209;51.050;13.678;2023-11-22T06:37:16;12.07;;;9.60;;
49340;SDS011;35209;51.050;13.678;2023-11-22T06:42:17;10.30;;;8.88;;
49340;SDS011;35209;51.050;13.678;2023-11-22T06:47:21;10.68;;;9.57;;
49340;SDS011;35209;51.050;13.678;2023-11-22T06:52:22;10.85;;;9.38;;
49340;SDS011;35209;51.050;13.678;2023-11-22T06:57:24;11.90;;;10.20;;
49340;SDS011;35209;51.050;13.678;2023-11-22T07:02:30;15.35;;;10.77;;
49340;SDS011;35209;51.050;13.678;2023-11-22T07:07:36;13.63;;;11.02;;
49340;SDS011;35209;51.050;13.678;2023-11-22T07:12:39;15.27;;;11.02;;
49340;SDS011;35209;51.050;13.678;2023-11-22T07:17:41;12.50;;;9.60;;
49340;SDS011;35209;51.050;13.678;2023-11-22T07:22:43;13.32;;;10.45;;
49340;SDS011;35209;51.050;13.678;2023-11-22T07:27:45;16.58;;;12.93;;
49340;SDS011;35209;51.050;13.678;2023-11-22T07:32:51;12.77;;;10.85;;
49340;SDS011;35209;51.050;13.678;2023-11-22T07:37:53;19.88;;;12.27;;
49340;SDS011;35209;51.050;13.678;2023-11-22T07:42:56;14.52;;;11.68;;
49340;SDS011;35209;51.050;13.678;2023-11-22T07:47:57;17.67;;;12.73;;
49340;SDS011;35209;51.050;13.678;2023-11-22T07:53:01;13.88;;;10.90;;
49340;SDS011;35209;51.050;13.678;2023-11-22T07:58:05;14.27;;;10.57;;
49340;SDS011;35209;51.050;13.678;2023-11-22T08:03:10;14.15;;;12.18;;
49340;SDS011;35209;51.050;13.678;2023-11-22T08:08:12;17.05;;;11.70;;
49340;SDS011;35209;51.050;13.678;2023-11-22T08:13:15;20.02;;;11.02;;
49340;SDS011;35209;51.050;13.678;2023-11-22T08:18:17;12.23;;;10.57;;
49340;SDS011;35209;51.050;13.678;2023-11-22T08:23:19;16.15;;;10.75;;
49340;SDS011;35209;51.050;13.678;2023-11-22T08:28:21;11.82;;;10.52;;
49340;SDS011;35209;51.050;13.678;2023-11-22T08:33:23;17.00;;;11.88;;
49340;SDS011;35209;51.050;13.678;2023-11-22T08:38:25;13.02;;;10.70;;
49340;SDS011;35209;51.050;13.678;2023-11-22T08:43:27;17.77;;;12.00;;
49340;SDS011;35209;51.050;13.678;2023-11-22T08:48:30;16.10;;;12.10;;
49340;SDS011;35209;51.050;13.678;2023-11-22T08:53:32;13.35;;;11.18;;
49340;SDS011;35209;51.050;13.678;2023-11-22T08:58:34;15.35;;;11.48;;
49340;SDS011;35209;51.050;13.678;2023-11-22T09:03:36;14.10;;;11.55;;
49340;SDS011;35209;51.050;13.678;2023-11-22T09:08:39;14.93;;;10.63;;
49340;SDS011;35209;51.050;13.678;2023-11-22T09:13:41;14.93;;;10.55;;
49340;SDS011;35209;51.050;13.678;2023-11-22T09:18:44;13.02;;;9.98;;
49340;SDS011;35209;51.050;13.678;2023-11-22T09:23:46;14.65;;;12.25;;
49340;SDS011;35209;51.050;13.678;2023-11-22T09:28:50;16.70;;;11.88;;
49340;SDS011;35209;51.050;13.678;2023-11-22T09:33:52;12.88;;;11.57;;
49340;SDS011;35209;51.050;13.678;2023-11-22T09:38:54;13.23;;;11.77;;
49340;SDS011;35209;51.050;13.678;2023-11-22T09:43:55;15.18;;;10.18;;
49340;SDS011;35209;51.050;13.678;2023-11-22T09:48:57;14.57;;;11.57;;
49340;SDS011;35209;51.050;13.678;2023-11-22T09:54:00;16.45;;;10.90;;
49340;SDS011;35209;51.050;13.678;2023-11-22T09:59:08;10.38;;;8.88;;
49340;SDS011;35209;51.050;13.678;2023-11-22T10:04:14;11.35;;;9.60;;
49340;SDS011;35209;51.050;13.678;2023-11-22T10:09:17;11.05;;;9.13;;
49340;SDS011;35209;51.050;13.678;2023-11-22T10:14:22;10.68;;;9.02;;
49340;SDS011;35209;51.050;13.678;2023-11-22T10:19:26;11.35;;;9.55;;
49340;SDS011;35209;51.050;13.678;2023-11-22T10:24:33;10.20;;;8.55;;
49340;SDS011;35209;51.050;13.678;2023-11-22T10:29:35;8.73;;;7.80;;
49340;SDS011;35209;51.050;13.678;2023-11-22T10:34:39;12.40;;;8.52;;
49340;SDS011;35209;51.050;13.678;2023-11-22T10:39:46;9.35;;;7.35;;
49340;SDS011;35209;51.050;13.678;2023-11-22T10:44:55;9.48;;;7.97;;
49340;SDS011;35209;51.050;13.678;2023-11-22T10:55:06;7.30;;;6.07;;
49340;SDS011;35209;51.050;13.678;2023-11-22T11:00:08;9.80;;;7.10;;
49340;SDS011;35209;51.050;13.678;2023-11-22T11:05:18;7.97;;;6.50;;
49340;SDS011;35209;51.050;13.678;2023-11-22T11:10:29;7.18;;;5.93;;
49340;SDS011;35209;51.050;13.678;2023-11-22T11:15:33;8.88;;;7.15;;
49340;SDS011;35209;51.050;13.678;2023-11-22T11:25:58;9.18;;;6.57;;
49340;SDS011;35209;51.050;13.678;2023-11-22T11:31:10;7.90;;;6.72;;
49340;SDS011;35209;51.050;13.678;2023-11-22T11:36:11;8.90;;;5.72;;
49340;SDS011;35209;51.050;13.678;2023-11-22T11:41:16;8.10;;;5.68;;
49340;SDS011;35209;51.050;13.678;2023-11-22T11:46:18;7.40;;;6.18;;
49340;SDS011;35209;51.050;13.678;2023-11-22T11:51:21;9.07;;;6.28;;
49340;SDS011;35209;51.050;13.678;2023-11-22T11:56:25;9.85;;;6.90;;
49340;SDS011;35209;51.050;13.678;2023-11-22T12:01:30;9.55;;;5.22;;
49340;SDS011;35209;51.050;13.678;2023-11-22T12:06:34;6.80;;;5.20;;
49340;SDS011;35209;51.050;13.678;2023-11-22T12:11:40;6.55;;;5.63;;
49340;SDS011;35209;51.050;13.678;2023-11-22T12:16:44;6.75;;;5.10;;
49340;SDS011;35209;51.050;13.678;2023-11-22T12:21:49;6.35;;;5.03;;
49340;SDS011;35209;51.050;13.678;2023-11-22T12:26:51;6.65;;;5.80;;
49340;SDS011;35209;51.050;13.678;2023-11-22T12:31:53;9.93;;;6.45;;
49340;SDS011;35209;51.050;13.678;2023-11-22T12:36:56;7.63;;;5.55;;
49340;SDS011;35209;51.050;13.678;2023-11-22T12:41:59;5.60;;;4.82;;
49340;SDS011;35209;51.050;13.678;2023-11-22T12:47:11;6.22;;;4.22;;
49340;SDS011;35209;51.050;13.678;2023-11-22T12:52:13;6.97;;;4.57;;
49340;SDS011;35209;51.050;13.678;2023-11-22T12:57:15;5.93;;;4.75;;
49340;SDS011;35209;51.050;13.678;2023-11-22T13:02:20;6.60;;;4.45;;
49340;SDS011;35209;51.050;13.678;2023-11-22T13:07:22;6.20;;;5.15;;
49340;SDS011;35209;51.050;13.678;2023-11-22T13:12:24;7.22;;;5.22;;
49340;SDS011;35209;51.050;13.678;2023-11-22T13:17:26;6.53;;;4.85;;
49340;SDS011;35209;51.050;13.678;2023-11-22T13:22:28;6.82;;;5.20;;
49340;SDS011;35209;51.050;13.678;2023-11-22T13:27:30;5.93;;;5.20;;
49340;SDS011;35209;51.050;13.678;2023-11-22T13:32:32;6.50;;;5.05;;
49340;SDS011;35209;51.050;13.678;2023-11-22T13:37:34;6.70;;;5.30;;
49340;SDS011;35209;51.050;13.678;2023-11-22T13:42:36;7.55;;;5.90;;
49340;SDS011;35209;51.050;13.678;2023-11-22T13:47:39;6.82;;;4.78;;
49340;SDS011;35209;51.050;13.678;2023-11-22T13:52:41;6.75;;;5.68;;
49340;SDS011;35209;51.050;13.678;2023-11-22T13:57:43;7.10;;;5.15;;
49340;SDS011;35209;51.050;13.678;2023-11-22T14:02:49;8.38;;;6.25;;
49340;SDS011;35209;51.050;13.678;2023-11-22T14:07:57;6.40;;;5.20;;
49340;SDS011;35209;51.050;13.678;2023-11-22T14:13:00;6.55;;;5.57;;
49340;SDS011;35209;51.050;13.678;2023-11-22T14:18:03;8.48;;;5.63;;
49340;SDS011;35209;51.050;13.678;2023-11-22T14:23:06;7.47;;;6.05;;
49340;SDS011;35209;51.050;13.678;2023-11-22T14:28:09;8.45;;;5.72;;
49340;SDS011;35209;51.050;13.678;2023-11-22T14:33:11;6.90;;;5.35;;
49340;SDS011;35209;51.050;13.678;2023-11-22T14:38:13;8.48;;;6.13;;
49340;SDS011;35209;51.050;13.678;2023-11-22T14:43:15;7.38;;;6.15;;
49340;SDS011;35209;51.050;13.678;2023-11-22T14:48:17;8.10;;;6.30;;
49340;SDS011;35209;51.050;13.678;2023-11-22T14:53:19;7.05;;;5.85;;
49340;SDS011;35209;51.050;13.678;2023-11-22T14:58:21;6.45;;;5.82;;
49340;SDS011;35209;51.050;13.678;2023-11-22T15:03:23;6.80;;;5.82;;
49340;SDS011;35209;51.050;13.678;2023-11-22T15:08:28;6.65;;;5.35;;
49340;SDS011;35209;51.050;13.678;2023-11-22T15:13:30;10.07;;;6.72;;
49340;SDS011;35209;51.050;13.678;2023-11-22T15:18:32;9.15;;;7.05;;
49340;SDS011;35209;51.050;13.678;2023-11-22T15:23:34;8.07;;;7.03;;
49340;SDS011;35209;51.050;13.678;2023-11-22T15:28:36;9.05;;;7.05;;
49340;SDS011;35209;51.050;13.678;2023-11-22T15:33:38;7.90;;;6.40;;
49340;SDS011;35209;51.050;13.678;2023-11-22T15:38:40;8.73;;;7.18;;
49340;SDS011;35209;51.050;13.678;2023-11-22T15:43:42;7.85;;;6.93;;
49340;SDS011;35209;51.050;13.678;2023-11-22T15:48:44;18.85;;;11.93;;
49340;SDS011;35209;51.050;13.678;2023-11-22T15:53:47;65.10;;;24.40;;
49340;SDS011;35209;51.050;13.678;2023-11-22T15:58:49;9.63;;;8.50;;
49340;SDS011;35209;51.050;13.678;2023-11-22T16:03:51;9.35;;;8.20;;
49340;SDS011;35209;51.050;13.678;2023-11-22T16:08:53;11.25;;;9.38;;
49340;SDS011;35209;51.050;13.678;2023-11-22T16:13:56;11.13;;;9.30;;
49340;SDS011;35209;51.050;13.678;2023-11-22T16:19:05;12.23;;;9.18;;
49340;SDS011;35209;51.050;13.678;2023-11-22T16:24:16;10.95;;;8.88;;
49340;SDS011;35209;51.050;13.678;2023-11-22T16:29:24;11.30;;;8.95;;
49340;SDS011;35209;51.050;13.678;2023-11-22T16:34:32;12.80;;;10.07;;
49340;SDS011;35209;51.050;13.678;2023-11-22T16:39:35;9.88;;;8.75;;
49340;SDS011;35209;51.050;13.678;2023-11-22T16:44:37;11.18;;;9.13;;
49340;SDS011;35209;51.050;13.678;2023-11-22T16:49:45;12.02;;;9.25;;
49340;SDS011;35209;51.050;13.678;2023-11-22T16:54:47;9.85;;;8.05;;
49340;SDS011;35209;51.050;13.678;2023-11-22T16:59:52;11.93;;;8.27;;
49340;SDS011;35209;51.050;13.678;2023-11-22T17:04:54;10.93;;;8.70;;
49340;SDS011;35209;51.050;13.678;2023-11-22T17:09:57;10.35;;;8.50;;
49340;SDS011;35209;51.050;13.678;2023-11-22T17:14:59;10.20;;;8.55;;
49340;SDS011;35209;51.050;13.678;2023-11-22T17:20:01;13.95;;;10.07;;
49340;SDS011;35209;51.050;13.678;2023-11-22T17:25:06;10.18;;;8.90;;
49340;SDS011;35209;51.050;13.678;2023-11-22T17:30:14;14.35;;;10.75;;
49340;SDS011;35209;51.050;13.678;2023-11-22T17:35:17;22.23;;;12.32;;
49340;SDS011;35209;51.050;13.678;2023-11-22T17:40:20;11.18;;;8.30;;
49340;SDS011;35209;51.050;13.678;2023-11-22T17:45:22;11.85;;;10.23;;
49340;SDS011;35209;51.050;13.678;2023-11-22T17:50:26;10.48;;;9.27;;
49340;SDS011;35209;51.050;13.678;2023-11-22T17:55:28;10.82;;;8.52;;
49340;SDS011;35209;51.050;13.678;2023-11-22T18:00:30;10.98;;;9.38;;
49340;SDS011;35209;51.050;13.678;2023-11-22T18:05:32;12.30;;;9.82;;
49340;SDS011;35209;51.050;13.678;2023-11-22T18:10:34;14.90;;;11.52;;
49340;SDS011;35209;51.050;13.678;2023-11-22T18:15:47;11.50;;;9.20;;
49340;SDS011;35209;51.050;13.678;2023-11-22T18:20:50;14.32;;;9.68;;
49340;SDS011;35209;51.050;13.678;2023-11-22T18:25:52;13.13;;;11.45;;
49340;SDS011;35209;51.050;13.678;2023-11-22T18:30:54;13.13;;;11.80;;
49340;SDS011;35209;51.050;13.678;2023-11-22T18:35:56;15.02;;;10.77;;
49340;SDS011;35209;51.050;13.678;2023-11-22T18:40:58;11.32;;;10.10;;
49340;SDS011;35209;51.050;13.678;2023-11-22T18:46:04;14.02;;;11.95;;
49340;SDS011;35209;51.050;13.678;2023-11-22T18:51:08;12.32;;;9.98;;
49340;SDS011;35209;51.050;13.678;2023-11-22T18:56:10;13.55;;;10.75;;
49340;SDS011;35209;51.050;13.678;2023-11-22T19:01:13;12.40;;;11.10;;
49340;SDS011;35209;51.050;13.678;2023-11-22T19:06:15;13.82;;;11.45;;
49340;SDS011;35209;51.050;13.678;2023-11-22T19:11:17;14.50;;;12.38;;
49340;SDS011;35209;51.050;13.678;2023-11-22T19:16:19;12.43;;;10.10;;
49340;SDS011;35209;51.050;13.678;2023-11-22T19:21:22;19.27;;;11.38;;
49340;SDS011;35209;51.050;13.678;2023-11-22T19:26:24;14.77;;;10.95;;
49340;SDS011;35209;51.050;13.678;2023-11-22T19:31:27;15.90;;;11.13;;
49340;SDS011;35209;51.050;13.678;2023-11-22T19:36:28;13.18;;;9.95;;
49340;SDS011;35209;51.050;13.678;2023-11-22T19:41:30;14.10;;;10.15;;
49340;SDS011;35209;51.050;13.678;2023-11-22T19:46:32;14.48;;;10.52;;
49340;SDS011;35209;51.050;13.678;2023-11-22T19:51:34;14.25;;;10.13;;
49340;SDS011;35209;51.050;13.678;2023-11-22T19:56:40;11.87;;;9.77;;
49340;SDS011;35209;51.050;13.678;2023-11-22T20:01:43;11.75;;;9.85;;
49340;SDS011;35209;51.050;13.678;2023-11-22T20:06:46;13.48;;;10.35;;
49340;SDS011;35209;51.050;13.678;2023-11-22T20:11:49;12.77;;;9.95;;
49340;SDS011;35209;51.050;13.678;2023-11-22T20:16:51;10.98;;;9.27;;
49340;SDS011;35209;51.050;13.678;2023-11-22T20:21:53;15.27;;;10.90;;
49340;SDS011;35209;51.050;13.678;2023-11-22T20:26:55;10.38;;;9.27;;
49340;SDS011;35209;51.050;13.678;2023-11-22T20:31:58;13.07;;;9.07;;
49340;SDS011;35209;51.050;13.678;2023-11-22T20:37:00;11.55;;;9.32;;
49340;SDS011;35209;51.050;13.678;2023-11-22T20:42:01;11.63;;;10.35;;
49340;SDS011;35209;51.050;13.678;2023-11-22T20:47:04;10.20;;;8.50;;
49340;SDS011;35209;51.050;13.678;2023-11-22T20:52:06;11.60;;;9.18;;
49340;SDS011;35209;51.050;13.678;2023-11-22T20:57:08;14.50;;;10.25;;
49340;SDS011;35209;51.050;13.678;2023-11-22T21:02:10;11.95;;;9.25;;
49340;SDS011;35209;51.050;13.678;2023-11-22T21:07:12;14.50;;;9.40;;
49340;SDS011;35209;51.050;13.678;2023-11-22T21:12:14;10.52;;;8.10;;
49340;SDS011;35209;51.050;13.678;2023-11-22T21:17:16;9.93;;;8.88;;
49340;SDS011;35209;51.050;13.678;2023-11-22T21:22:19;9.98;;;7.97;;
49340;SDS011;35209;51.050;13.678;2023-11-22T21:27:21;9.18;;;8.20;;
49340;SDS011;35209;51.050;13.678;2023-11-22T21:32:23;9.15;;;7.72;;
49340;SDS011;35209;51.050;13.678;2023-11-22T21:37:25;8.77;;;7.05;;
49340;SDS011;35209;51.050;13.678;2023-11-22T21:42:27;9.32;;;7.85;;
49340;SDS011;35209;51.050;13.678;2023-11-22T21:47:29;10.20;;;8.27;;
49340;SDS011;35209;51.050;13.678;2023-11-22T21:52:32;6.70;;;6.03;;
49340;SDS011;35209;51.050;13.678;2023-11-22T21:57:34;8.60;;;7.18;;
49340;SDS011;35209;51.050;13.678;2023-11-22T22:02:35;11.70;;;9.38;;
49340;SDS011;35209;51.050;13.678;2023-11-22T22:07:39;9.73;;;7.47;;
49340;SDS011;35209;51.050;13.678;2023-11-22T22:12:41;8.40;;;5.43;;
49340;SDS011;35209;51.050;13.678;2023-11-22T22:17:43;6.40;;;5.30;;
49340;SDS011;35209;51.050;13.678;2023-11-22T22:22:44;6.35;;;4.75;;
49340;SDS011;35209;51.050;13.678;2023-11-22T22:27:47;5.07;;;4.53;;
49340;SDS011;35209;51.050;13.678;2023-11-22T22:32:50;5.40;;;4.88;;
49340;SDS011;35209;51.050;13.678;2023-11-22T22:37:53;9.07;;;7.22;;
49340;SDS011;35209;51.050;13.678;2023-11-22T22:42:55;5.80;;;4.85;;
49340;SDS011;35209;51.050;13.678;2023-11-22T22:47:57;6.57;;;5.43;;
49340;SDS011;35209;51.050;13.678;2023-11-22T22:52:59;5.05;;;3.90;;
49340;SDS011;35209;51.050;13.678;2023-11-22T22:58:01;6.72;;;5.28;;
49340;SDS011;35209;51.050;13.678;2023-11-22T23:03:04;5.30;;;4.22;;
49340;SDS011;35209;51.050;13.678;2023-11-22T23:08:06;5.53;;;4.35;;
49340;SDS011;35209;51.050;13.678;2023-11-22T23:13:11;4.35;;;3.42;;
49340;SDS011;35209;51.050;13.678;2023-11-22T23:18:13;6.05;;;4.35;;
49340;SDS011;35209;51.050;13.678;2023-11-22T23:23:15;7.95;;;4.55;;
49340;SDS011;35209;51.050;13.678;2023-11-22T23:28:18;4.30;;;3.75;;
49340;SDS011;35209;51.050;13.678;2023-11-22T23:33:19;5.28;;;4.78;;
49340;SDS011;35209;51.050;13.678;2023-11-22T23:38:21;4.38;;;3.13;;
49340;SDS011;35209;51.050;13.678;2023-11-22T23:43:23;3.70;;;3.35;;
49340;SDS011;35209;51.050;13.678;2023-11-22T23:48:30;4.63;;;3.38;;
49340;SDS011;35209;51.050;13.678;2023-11-22T23:53:33;5.47;;;3.63;;
49340;SDS011;35209;51.050;13.678;2023-11-22T23:58:35;4.80;;;3.50;;
